createdAt,value
2022-08-28T00:01:53.853Z,100.00
2022-08-28T00:04:24.226Z,100.00
2022-08-28T00:06:54.463Z,100.00
2022-08-28T00:09:24.662Z,100.00
2022-08-28T00:11:55.173Z,100.00
2022-08-28T00:14:27.094Z,100.00
2022-08-28T00:16:59.004Z,100.00
2022-08-28T00:19:29.272Z,100.00
2022-08-28T00:21:59.590Z,100.00
2022-08-28T00:24:30.208Z,100.00
2022-08-28T00:27:18.429Z,100.00
2022-08-28T00:29:49.233Z,100.00
2022-08-28T00:32:23.751Z,100.00
2022-08-28T00:34:53.843Z,100.00
2022-08-28T00:37:24.714Z,100.00
2022-08-28T00:39:55.086Z,100.00
2022-08-28T00:42:26.791Z,100.00
2022-08-28T00:44:56.763Z,100.00
2022-08-28T00:47:28.703Z,100.00
2022-08-28T00:49:59.441Z,100.00
2022-08-28T00:52:29.412Z,100.00
2022-08-28T00:55:04.267Z,100.00
2022-08-28T00:57:37.743Z,100.00
2022-08-28T01:00:10.655Z,100.00
2022-08-28T01:02:42.724Z,100.00
2022-08-28T01:05:14.822Z,100.00
2022-08-28T01:07:45.659Z,100.00
2022-08-28T01:10:20.009Z,100.00
2022-08-28T01:12:51.889Z,100.00
2022-08-28T01:15:25.313Z,100.00
2022-08-28T01:18:05.967Z,100.00
2022-08-28T01:20:42.817Z,100.00
2022-08-28T01:23:21.315Z,100.00
2022-08-28T01:25:53.787Z,100.00
2022-08-28T01:28:24.214Z,100.00
2022-08-28T01:30:55.497Z,100.00
2022-08-28T01:33:28.234Z,100.00
2022-08-28T01:35:59.618Z,100.00
2022-08-28T01:38:29.976Z,100.00
2022-08-28T01:41:01.605Z,100.00
2022-08-28T01:43:32.027Z,100.00
2022-08-28T01:46:05.007Z,100.00
2022-08-28T01:48:37.406Z,100.00
2022-08-28T01:51:08.162Z,100.00
2022-08-28T01:53:39.074Z,100.00
2022-08-28T01:56:16.537Z,100.00
2022-08-28T01:58:48.354Z,100.00
2022-08-28T02:01:22.589Z,100.00
2022-08-28T02:03:53.340Z,100.00
2022-08-28T02:06:23.541Z,100.00
2022-08-28T02:08:55.815Z,100.00
2022-08-28T02:11:29.731Z,100.00
2022-08-28T02:14:00.618Z,100.00
2022-08-28T02:16:31.729Z,100.00
2022-08-28T02:19:03.847Z,100.00
2022-08-28T02:21:35.830Z,100.00
2022-08-28T02:24:06.093Z,100.00
2022-08-28T02:26:37.993Z,100.00
2022-08-28T02:29:08.494Z,100.00
2022-08-28T02:31:38.859Z,100.00
2022-08-28T02:34:11.708Z,100.00
2022-08-28T02:36:43.619Z,100.00
2022-08-28T02:39:13.751Z,100.00
2022-08-28T02:41:45.579Z,100.00
2022-08-28T02:44:15.550Z,100.00
2022-08-28T02:46:45.876Z,100.00
2022-08-28T02:49:15.920Z,100.00
2022-08-28T02:51:46.389Z,100.00
2022-08-28T02:54:16.334Z,100.00
2022-08-28T02:56:50.354Z,100.00
2022-08-28T02:59:20.366Z,100.00
2022-08-28T03:01:50.786Z,100.00
2022-08-28T03:04:20.951Z,100.00
2022-08-28T03:06:51.421Z,100.00
2022-08-28T03:09:21.391Z,100.00
2022-08-28T03:11:53.821Z,100.00
2022-08-28T03:14:24.668Z,100.00
2022-08-28T03:16:54.955Z,100.00
2022-08-28T03:19:26.029Z,100.00
2022-08-28T03:21:57.227Z,100.00
2022-08-28T03:24:26.369Z,100.00
2022-08-28T03:26:58.649Z,100.00
2022-08-28T03:29:29.036Z,100.00
2022-08-28T03:31:59.834Z,100.00
2022-08-28T03:34:30.324Z,100.00
2022-08-28T03:37:01.584Z,100.00
2022-08-28T03:39:32.094Z,100.00
2022-08-28T03:42:03.939Z,100.00
2022-08-28T03:44:34.957Z,100.00
2022-08-28T03:47:05.358Z,100.00
2022-08-28T03:49:35.910Z,100.00
2022-08-28T03:52:06.442Z,100.00
2022-08-28T03:54:36.744Z,100.00
2022-08-28T03:57:08.279Z,100.00
2022-08-28T03:59:38.726Z,100.00
2022-08-28T04:02:08.802Z,100.00
2022-08-28T04:04:39.593Z,100.00
2022-08-28T04:07:09.635Z,100.00
2022-08-28T04:09:40.004Z,100.00
2022-08-28T04:12:12.070Z,100.00
2022-08-28T04:14:42.352Z,100.00
2022-08-28T04:17:12.475Z,100.00
2022-08-28T04:19:43.673Z,100.00
2022-08-28T04:22:13.638Z,100.00
2022-08-28T04:24:43.729Z,100.00
2022-08-28T04:27:15.387Z,100.00
2022-08-28T04:29:45.884Z,100.00
2022-08-28T04:32:16.145Z,100.00
2022-08-28T04:34:46.638Z,100.00
2022-08-28T04:37:17.009Z,100.00
2022-08-28T04:39:47.258Z,100.00
2022-08-28T04:42:19.144Z,100.00
2022-08-28T04:44:49.601Z,100.00
2022-08-28T04:47:20.271Z,100.00
2022-08-28T04:49:50.678Z,100.00
2022-08-28T04:52:20.866Z,100.00
2022-08-28T04:54:51.466Z,100.00
2022-08-28T04:57:23.078Z,100.00
2022-08-28T04:59:53.503Z,100.00
2022-08-28T05:02:23.636Z,100.00
2022-08-28T05:04:54.183Z,100.00
2022-08-28T05:07:24.174Z,100.00
2022-08-28T05:09:55.525Z,100.00
2022-08-28T05:12:27.357Z,100.00
2022-08-28T05:14:57.647Z,100.00
2022-08-28T05:17:28.025Z,100.00
2022-08-28T05:20:02.622Z,100.00
2022-08-28T05:22:34.165Z,100.00
2022-08-28T05:25:04.335Z,100.00
2022-08-28T05:27:38.442Z,100.00
2022-08-28T05:30:10.964Z,100.00
2022-08-28T05:32:43.368Z,100.00
2022-08-28T05:35:14.215Z,100.00
2022-08-28T05:37:44.665Z,100.00
2022-08-28T05:40:15.363Z,100.00
2022-08-28T05:42:47.936Z,100.00
2022-08-28T05:45:18.198Z,100.00
2022-08-28T05:47:48.512Z,100.00
2022-08-28T05:50:18.531Z,100.00
2022-08-28T05:52:48.725Z,100.00
2022-08-28T05:55:19.367Z,100.00
2022-08-28T05:57:50.901Z,100.00
2022-08-28T06:00:21.439Z,100.00
2022-08-28T06:02:51.675Z,100.00
2022-08-28T06:05:23.045Z,100.00
2022-08-28T06:07:53.107Z,100.00
2022-08-28T06:10:23.295Z,100.00
2022-08-28T06:12:55.714Z,100.00
2022-08-28T06:15:27.295Z,100.00
2022-08-28T06:17:57.918Z,100.00
2022-08-28T06:20:28.079Z,100.00
2022-08-28T06:22:58.959Z,97.57
2022-08-28T06:25:29.108Z,95.02
2022-08-28T06:28:00.877Z,94.06
2022-08-28T06:30:31.309Z,92.70
2022-08-28T06:33:01.586Z,93.13
2022-08-28T06:35:32.329Z,91.51
2022-08-28T06:38:03.903Z,89.50
2022-08-28T06:40:34.199Z,86.83
2022-08-28T06:43:06.226Z,84.77
2022-08-28T06:45:37.131Z,83.00
2022-08-28T06:48:07.905Z,80.33
2022-08-28T06:50:41.636Z,73.87
2022-08-28T06:53:13.417Z,73.61
2022-08-28T06:55:44.144Z,71.30
2022-08-28T06:58:15.963Z,72.83
2022-08-28T07:00:46.100Z,71.20
2022-08-28T07:03:17.727Z,69.43
2022-08-28T07:05:47.872Z,69.00
2022-08-28T07:08:18.358Z,67.81
2022-08-28T07:10:49.262Z,67.71
2022-08-28T07:13:21.267Z,68.84
2022-08-28T07:15:52.102Z,67.56
2022-08-28T07:18:22.425Z,71.03
2022-08-28T07:20:58.998Z,70.08
2022-08-28T07:23:31.491Z,66.18
2022-08-28T07:26:06.065Z,70.54
2022-08-28T07:28:39.575Z,70.94
2022-08-28T07:31:12.178Z,65.61
2022-08-28T07:33:44.439Z,66.08
2022-08-28T07:36:29.006Z,64.55
2022-08-28T07:39:02.337Z,65.66
2022-08-28T07:41:37.758Z,62.11
2022-08-28T07:44:28.706Z,64.88
2022-08-28T07:47:01.953Z,66.01
2022-08-28T07:49:34.905Z,64.85
2022-08-28T07:52:05.888Z,64.53
2022-08-28T07:54:37.486Z,63.46
2022-08-28T07:57:08.974Z,61.72
2022-08-28T07:59:43.177Z,62.58
2022-08-28T08:02:21.423Z,59.73
2022-08-28T08:04:55.117Z,56.56
2022-08-28T08:07:25.238Z,57.39
2022-08-28T08:09:59.408Z,60.86
2022-08-28T08:12:30.901Z,62.59
2022-08-28T08:15:02.809Z,56.08
2022-08-28T08:17:36.845Z,56.32
2022-08-28T08:20:08.969Z,56.38
2022-08-28T08:22:39.477Z,56.52
2022-08-28T08:25:10.678Z,57.00
2022-08-28T08:27:43.022Z,55.45
2022-08-28T08:30:14.709Z,58.93
2022-08-28T08:32:47.413Z,58.26
2022-08-28T08:35:18.737Z,59.22
2022-08-28T08:37:50.627Z,53.92
2022-08-28T08:40:22.006Z,51.80
2022-08-28T08:42:55.926Z,51.81
2022-08-28T08:45:28.460Z,50.72
2022-08-28T08:48:03.768Z,52.15
2022-08-28T08:50:41.533Z,49.05
2022-08-28T08:53:31.031Z,49.01
2022-08-28T08:56:03.656Z,49.86
2022-08-28T08:58:38.931Z,48.69
2022-08-28T09:01:18.849Z,47.48
2022-08-28T09:03:59.621Z,46.33
2022-08-28T09:06:43.050Z,46.65
2022-08-28T09:09:19.859Z,48.14
2022-08-28T09:11:57.507Z,47.32
2022-08-28T09:14:38.494Z,44.51
2022-08-28T09:17:15.144Z,45.32
2022-08-28T09:19:46.760Z,45.91
2022-08-28T09:22:17.555Z,45.63
2022-08-28T09:24:47.437Z,46.32
2022-08-28T09:27:28.876Z,45.53
2022-08-28T09:30:07.410Z,43.29
2022-08-28T09:32:41.847Z,44.28
2022-08-28T09:35:19.304Z,45.73
2022-08-28T09:37:49.756Z,45.97
2022-08-28T09:40:26.601Z,45.43
2022-08-28T09:43:21.436Z,45.54
2022-08-28T09:45:59.791Z,43.71
2022-08-28T09:48:37.195Z,45.50
2022-08-28T09:51:11.205Z,45.08
2022-08-28T09:54:01.661Z,45.55
2022-08-28T09:56:34.578Z,43.14
2022-08-28T09:59:09.259Z,42.94
2022-08-28T10:01:50.200Z,42.20
2022-08-28T10:04:44.666Z,43.75
2022-08-28T10:07:25.027Z,43.31
2022-08-28T10:10:17.333Z,42.68
2022-08-28T10:13:02.443Z,41.05
2022-08-28T10:15:55.754Z,40.34
2022-08-28T10:18:39.498Z,42.21
2022-08-28T10:21:19.167Z,41.28
2022-08-28T10:24:07.549Z,42.30
2022-08-28T10:26:45.219Z,44.37
2022-08-28T10:29:36.598Z,41.94
2022-08-28T10:32:22.799Z,42.01
2022-08-28T10:35:05.320Z,41.22
2022-08-28T10:37:48.359Z,42.49
2022-08-28T10:40:26.148Z,38.18
2022-08-28T10:43:02.309Z,39.92
2022-08-28T10:45:34.688Z,40.74
2022-08-28T10:48:12.051Z,42.28
2022-08-28T10:50:45.597Z,44.57
2022-08-28T10:53:19.732Z,44.40
2022-08-28T10:56:00.407Z,45.31
2022-08-28T10:58:32.280Z,42.90
2022-08-28T11:01:07.800Z,40.52
2022-08-28T11:03:46.239Z,43.31
2022-08-28T11:06:24.819Z,42.82
2022-08-28T11:08:58.579Z,44.71
2022-08-28T11:11:46.917Z,44.78
2022-08-28T11:14:27.230Z,43.56
2022-08-28T11:17:00.264Z,41.73
2022-08-28T11:20:08.319Z,42.22
2022-08-28T11:22:43.125Z,43.32
2022-08-28T11:25:26.617Z,42.17
2022-08-28T11:28:41.438Z,43.64
2022-08-28T11:31:32.241Z,43.42
2022-08-28T11:34:03.339Z,42.75
2022-08-28T11:37:02.989Z,43.38
2022-08-28T11:39:33.118Z,43.33
2022-08-28T11:42:24.238Z,42.91
2022-08-28T11:44:56.558Z,42.50
2022-08-28T11:47:52.589Z,41.69
2022-08-28T11:50:29.538Z,42.44
2022-08-28T11:53:27.738Z,41.72
2022-08-28T11:56:31.815Z,41.85
2022-08-28T11:59:25.669Z,43.03
2022-08-28T12:02:52.084Z,47.42
2022-08-28T12:05:47.289Z,49.97
2022-08-28T12:09:05.489Z,50.22
2022-08-28T12:11:56.126Z,51.86
2022-08-28T12:15:07.934Z,53.03
2022-08-28T12:17:55.441Z,55.64
2022-08-28T12:21:00.601Z,56.21
2022-08-28T12:23:39.160Z,58.85
2022-08-28T12:26:17.461Z,59.75
2022-08-28T12:28:50.740Z,61.11
2022-08-28T12:32:09.239Z,60.77
2022-08-28T12:34:46.580Z,62.42
2022-08-28T12:37:51.370Z,63.11
2022-08-28T12:40:31.573Z,64.18
2022-08-28T12:43:08.243Z,65.25
2022-08-28T12:45:46.447Z,66.68
2022-08-28T12:48:27.057Z,68.85
2022-08-28T12:51:06.679Z,69.80
2022-08-28T12:54:04.308Z,71.36
2022-08-28T12:56:40.125Z,72.37
2022-08-28T12:59:29.076Z,72.95
2022-08-28T13:02:04.711Z,74.24
2022-08-28T13:04:38.610Z,76.60
2022-08-28T13:07:16.642Z,78.23
2022-08-28T13:09:54.450Z,79.66
2022-08-28T13:12:37.870Z,80.68
2022-08-28T13:16:02.155Z,82.63
2022-08-28T13:18:43.089Z,85.07
2022-08-28T13:21:34.359Z,84.85
2022-08-28T13:24:43.346Z,83.85
2022-08-28T13:27:28.569Z,84.34
2022-08-28T13:30:06.429Z,85.48
2022-08-28T13:32:40.617Z,85.63
2022-08-28T13:35:17.080Z,87.80
2022-08-28T13:37:51.418Z,90.02
2022-08-28T13:40:55.783Z,91.85
2022-08-28T13:43:17.281Z,93.18
2022-08-28T13:45:49.643Z,93.42
2022-08-28T13:48:22.881Z,94.65
2022-08-28T13:50:58.537Z,94.18
2022-08-28T13:53:29.430Z,95.37
2022-08-28T13:56:03.760Z,95.55
2022-08-28T13:58:34.176Z,97.50
2022-08-28T14:01:07.695Z,92.08
2022-08-28T14:03:38.895Z,95.96
2022-08-28T14:06:13.299Z,94.47
2022-08-28T14:08:45.723Z,87.18
2022-08-28T14:11:18.119Z,87.16
2022-08-28T14:13:55.541Z,87.03
2022-08-28T14:16:30.977Z,85.50
2022-08-28T14:19:07.172Z,86.34
2022-08-28T14:21:45.773Z,87.33
2022-08-28T14:24:25.209Z,83.41
2022-08-28T14:27:03.808Z,81.51
2022-08-28T14:29:35.901Z,79.27
2022-08-28T14:32:06.834Z,76.63
2022-08-28T14:34:38.522Z,73.65
2022-08-28T14:37:14.524Z,74.12
2022-08-28T14:39:48.298Z,75.66
2022-08-28T14:42:20.177Z,75.17
2022-08-28T14:44:50.368Z,74.81
2022-08-28T14:47:21.105Z,73.81
2022-08-28T14:49:51.208Z,75.13
2022-08-28T14:52:22.804Z,75.80
2022-08-28T14:54:53.031Z,76.80
2022-08-28T14:57:24.927Z,75.75
2022-08-28T14:59:54.978Z,75.42
2022-08-28T15:02:25.369Z,74.31
2022-08-28T15:04:55.620Z,74.36
2022-08-28T15:07:25.879Z,74.47
2022-08-28T15:09:56.008Z,73.40
2022-08-28T15:12:27.904Z,74.80
2022-08-28T15:14:58.009Z,73.77
2022-08-28T15:17:33.791Z,74.09
2022-08-28T15:20:06.299Z,74.09
2022-08-28T15:22:37.079Z,74.80
2022-08-28T15:25:08.559Z,74.93
2022-08-28T15:27:40.654Z,75.30
2022-08-28T15:30:11.819Z,75.50
2022-08-28T15:32:44.957Z,76.24
2022-08-28T15:35:15.696Z,76.53
2022-08-28T15:37:46.076Z,76.34
2022-08-28T15:40:33.412Z,76.83
2022-08-28T15:43:05.725Z,76.45
2022-08-28T15:45:39.454Z,75.64
2022-08-28T15:48:12.308Z,75.09
2022-08-28T15:50:43.071Z,72.64
2022-08-28T15:53:16.878Z,72.46
2022-08-28T15:55:48.296Z,73.99
2022-08-28T15:58:20.828Z,73.65
2022-08-28T16:00:51.222Z,73.59
2022-08-28T16:03:21.618Z,73.80
2022-08-28T16:05:51.675Z,73.37
2022-08-28T16:08:22.285Z,73.44
2022-08-28T16:10:53.377Z,71.71
2022-08-28T16:13:25.572Z,72.58
2022-08-28T16:15:56.033Z,73.86
2022-08-28T16:18:26.766Z,73.64
2022-08-28T16:20:58.069Z,74.37
2022-08-28T16:23:31.255Z,74.72
2022-08-28T16:26:02.214Z,74.99
2022-08-28T16:28:35.294Z,75.37
2022-08-28T16:31:18.948Z,76.79
2022-08-28T16:33:50.060Z,76.91
2022-08-28T16:36:21.808Z,77.60
2022-08-28T16:39:00.460Z,77.50
2022-08-28T16:41:34.265Z,77.29
2022-08-28T16:44:06.453Z,77.96
2022-08-28T16:46:36.930Z,78.76
2022-08-28T16:49:07.292Z,76.79
2022-08-28T16:51:37.285Z,75.62
2022-08-28T16:54:08.285Z,76.25
2022-08-28T16:56:38.664Z,77.40
2022-08-28T16:59:10.744Z,78.71
2022-08-28T17:01:42.878Z,79.44
2022-08-28T17:04:13.785Z,79.71
2022-08-28T17:06:45.834Z,79.87
2022-08-28T17:09:16.287Z,80.39
2022-08-28T17:11:46.724Z,81.38
2022-08-28T17:14:24.336Z,82.05
2022-08-28T17:16:55.165Z,83.04
2022-08-28T17:19:25.506Z,83.87
2022-08-28T17:22:12.804Z,84.29
2022-08-28T17:24:42.964Z,85.44
2022-08-28T17:27:14.727Z,86.28
2022-08-28T17:29:54.297Z,85.40
2022-08-28T17:32:24.730Z,86.90
2022-08-28T17:34:54.941Z,87.52
2022-08-28T17:37:25.225Z,88.57
2022-08-28T17:39:55.728Z,88.61
2022-08-28T17:42:29.007Z,89.04
2022-08-28T17:45:04.143Z,90.10
2022-08-28T17:47:41.705Z,90.73
2022-08-28T17:50:20.046Z,91.34
2022-08-28T17:52:53.734Z,90.97
2022-08-28T17:55:27.844Z,91.67
2022-08-28T17:58:02.154Z,92.00
2022-08-28T18:00:38.041Z,93.34
2022-08-28T18:03:12.149Z,93.38
2022-08-28T18:05:45.646Z,93.57
2022-08-28T18:08:19.781Z,93.86
2022-08-28T18:10:51.056Z,94.77
2022-08-28T18:13:21.167Z,94.40
2022-08-28T18:15:56.985Z,94.37
2022-08-28T18:18:32.325Z,94.62
2022-08-28T18:21:06.950Z,94.19
2022-08-28T18:23:37.225Z,94.28
2022-08-28T18:26:07.535Z,94.67
2022-08-28T18:28:38.824Z,94.12
2022-08-28T18:31:10.923Z,94.57
2022-08-28T18:33:49.675Z,95.69
2022-08-28T18:36:21.591Z,95.11
2022-08-28T18:38:55.466Z,95.03
2022-08-28T18:41:34.531Z,96.30
2022-08-28T18:44:20.151Z,96.49
2022-08-28T18:46:58.256Z,97.10
2022-08-28T18:49:31.715Z,97.31
2022-08-28T18:52:03.607Z,97.18
2022-08-28T18:54:36.089Z,97.52
2022-08-28T18:57:11.625Z,97.33
2022-08-28T18:59:43.575Z,96.59
2022-08-28T19:02:18.773Z,97.65
2022-08-28T19:04:50.315Z,97.39
2022-08-28T19:07:20.557Z,97.54
2022-08-28T19:09:53.902Z,97.63
2022-08-28T19:12:28.517Z,97.17
2022-08-28T19:15:00.969Z,97.18
2022-08-28T19:17:36.143Z,96.98
2022-08-28T19:20:10.412Z,97.67
2022-08-28T19:22:41.085Z,97.70
2022-08-28T19:25:25.739Z,97.61
2022-08-28T19:28:01.797Z,97.67
2022-08-28T19:30:36.398Z,98.28
2022-08-28T19:33:15.155Z,97.36
2022-08-28T19:35:46.038Z,97.87
2022-08-28T19:38:16.465Z,97.81
2022-08-28T19:40:47.706Z,97.93
2022-08-28T19:43:20.579Z,97.32
2022-08-28T19:45:54.465Z,98.61
2022-08-28T19:48:27.073Z,98.68
2022-08-28T19:51:06.439Z,98.91
2022-08-28T19:53:56.148Z,98.64
2022-08-28T19:56:30.422Z,98.72
2022-08-28T19:59:04.830Z,98.83
2022-08-28T20:01:41.724Z,99.61
2022-08-28T20:04:20.115Z,99.85
2022-08-28T20:06:54.007Z,100.00
2022-08-28T20:09:27.338Z,100.00
2022-08-28T20:11:58.247Z,100.00
2022-08-28T20:14:31.616Z,100.00
2022-08-28T20:17:03.157Z,100.00
2022-08-28T20:19:34.906Z,100.00
2022-08-28T20:22:05.586Z,100.00
2022-08-28T20:24:36.415Z,100.00
2022-08-28T20:27:07.250Z,100.00
2022-08-28T20:29:39.406Z,100.00
2022-08-28T20:32:10.386Z,100.00
2022-08-28T20:34:44.486Z,100.00
2022-08-28T20:37:17.016Z,100.00
2022-08-28T20:39:48.566Z,100.00
2022-08-28T20:42:20.394Z,100.00
2022-08-28T20:44:51.917Z,100.00
2022-08-28T20:47:24.195Z,100.00
2022-08-28T20:49:57.955Z,100.00
2022-08-28T20:52:30.355Z,100.00
2022-08-28T20:55:00.846Z,100.00
2022-08-28T20:57:34.394Z,100.00
2022-08-28T21:00:08.146Z,100.00
2022-08-28T21:02:39.395Z,100.00
2022-08-28T21:05:11.558Z,100.00
2022-08-28T21:07:41.684Z,100.00
2022-08-28T21:10:12.075Z,100.00
2022-08-28T21:12:42.376Z,100.00
2022-08-28T21:15:14.246Z,100.00
2022-08-28T21:17:44.724Z,100.00
2022-08-28T21:20:17.074Z,100.00
2022-08-28T21:22:47.556Z,100.00
2022-08-28T21:25:18.384Z,100.00
2022-08-28T21:27:50.763Z,100.00
2022-08-28T21:30:23.546Z,100.00
2022-08-28T21:32:59.896Z,100.00
2022-08-28T21:35:31.984Z,100.00
2022-08-28T21:38:02.434Z,100.00
2022-08-28T21:40:32.625Z,100.00
2022-08-28T21:43:03.005Z,100.00
2022-08-28T21:45:33.106Z,100.00
2022-08-28T21:48:03.204Z,100.00
2022-08-28T21:50:35.176Z,100.00
2022-08-28T21:53:05.503Z,100.00
2022-08-28T21:55:35.814Z,100.00
2022-08-28T21:58:05.874Z,100.00
2022-08-28T22:00:36.204Z,100.00
2022-08-28T22:03:06.480Z,100.00
2022-08-28T22:05:39.505Z,100.00
2022-08-28T22:08:09.861Z,100.00
2022-08-28T22:10:40.821Z,100.00
2022-08-28T22:13:12.346Z,100.00
2022-08-28T22:15:44.367Z,100.00
2022-08-28T22:18:16.013Z,100.00
2022-08-28T22:21:18.127Z,100.00
2022-08-28T22:23:49.187Z,100.00
2022-08-28T22:26:20.095Z,100.00
2022-08-28T22:28:50.136Z,100.00
2022-08-28T22:31:20.977Z,100.00
2022-08-28T22:33:51.405Z,100.00
2022-08-28T22:36:23.677Z,100.00
2022-08-28T22:39:00.267Z,100.00
2022-08-28T22:41:30.847Z,100.00
2022-08-28T22:44:01.033Z,100.00
2022-08-28T22:46:31.375Z,100.00
2022-08-28T22:49:01.528Z,100.00
2022-08-28T22:51:34.591Z,100.00
2022-08-28T22:54:05.347Z,100.00
2022-08-28T22:56:36.514Z,100.00
2022-08-28T22:59:06.797Z,100.00
2022-08-28T23:01:37.179Z,100.00
2022-08-28T23:04:07.659Z,100.00
2022-08-28T23:06:40.605Z,100.00
2022-08-28T23:09:11.381Z,100.00
2022-08-28T23:11:41.705Z,100.00
2022-08-28T23:14:11.968Z,100.00
2022-08-28T23:16:42.342Z,100.00
2022-08-28T23:19:13.759Z,100.00
2022-08-28T23:21:45.507Z,100.00
2022-08-28T23:24:17.457Z,100.00
2022-08-28T23:26:48.086Z,100.00
2022-08-28T23:29:18.397Z,100.00
2022-08-28T23:31:48.481Z,100.00
2022-08-28T23:34:18.977Z,100.00
2022-08-28T23:36:50.678Z,100.00
2022-08-28T23:39:21.322Z,100.00
2022-08-28T23:41:53.069Z,100.00
2022-08-28T23:44:23.460Z,100.00
2022-08-28T23:46:53.576Z,100.00
2022-08-28T23:49:26.924Z,100.00
2022-08-28T23:51:58.647Z,100.00
2022-08-28T23:54:30.107Z,100.00
2022-08-28T23:57:00.087Z,100.00
2022-08-28T23:59:30.127Z,100.00
